Reddick, Florida
Current Conditions -  °F | °C
As of 6:15 AM on Monday 20 Oct 2014 (Local Time) from KOCF Reporting Station
Clear Clear  
Wind Chill: 61°   Ceiling: Unl
Heat Index: 61°   Visibility: 10mi
Dew Point: 55°   Wind: 3mph
Humidity: 82%   Direction: 50°NE
Pressure: 30.04"   Gusts: NA
Location:  29.37°N, 82.2°W
Report Text: KOCF 201015Z AUTO 05003KT 10SM CLR 16/13 A3004 RMK AO1
Loading
Personal Weather Stations






























Interactive Weather Map
Tropical Storm Tracking
New forecast layout! Learn more

10-Day Weather Forecast

Advertisements
Track Severe Weather on mobile